sensor_id;sensor_type;location;lat;lon;timestamp;temperature;humidity
11838;DHT22;5978;51.020;6.764;2022-08-04T00:00:22;24.80;99.90
11838;DHT22;5978;51.020;6.764;2022-08-04T00:05:32;24.60;99.90
11838;DHT22;5978;51.020;6.764;2022-08-04T00:10:53;24.70;99.90
11838;DHT22;5978;51.020;6.764;2022-08-04T00:13:23;24.60;99.90
11838;DHT22;5978;51.020;6.764;2022-08-04T00:16:09;24.60;99.90
11838;DHT22;5978;51.020;6.764;2022-08-04T00:18:54;24.40;99.90
11838;DHT22;5978;51.020;6.764;2022-08-04T00:21:21;24.20;99.90
11838;DHT22;5978;51.020;6.764;2022-08-04T00:23:48;24.20;99.90
11838;DHT22;5978;51.020;6.764;2022-08-04T00:26:15;24.10;99.90
11838;DHT22;5978;51.020;6.764;2022-08-04T00:28:42;24.00;99.90
11838;DHT22;5978;51.020;6.764;2022-08-04T00:31:10;23.90;99.90
11838;DHT22;5978;51.020;6.764;2022-08-04T00:33:39;23.90;99.90
11838;DHT22;5978;51.020;6.764;2022-08-04T00:36:05;23.80;99.90
11838;DHT22;5978;51.020;6.764;2022-08-04T00:38:31;23.70;99.90
11838;DHT22;5978;51.020;6.764;2022-08-04T00:43:48;23.80;99.90
11838;DHT22;5978;51.020;6.764;2022-08-04T00:51:46;23.70;99.90
11838;DHT22;5978;51.020;6.764;2022-08-04T00:56:56;23.90;99.90
11838;DHT22;5978;51.020;6.764;2022-08-04T01:02:35;23.80;99.90
11838;DHT22;5978;51.020;6.764;2022-08-04T01:05:19;23.70;99.90
11838;DHT22;5978;51.020;6.764;2022-08-04T01:10:43;23.70;99.90
11838;DHT22;5978;51.020;6.764;2022-08-04T01:16:02;23.70;99.90
11838;DHT22;5978;51.020;6.764;2022-08-04T01:27:01;23.60;99.90
11838;DHT22;5978;51.020;6.764;2022-08-04T01:29:34;23.60;99.90
11838;DHT22;5978;51.020;6.764;2022-08-04T01:32:04;23.50;99.90
11838;DHT22;5978;51.020;6.764;2022-08-04T01:34:41;23.40;99.90
11838;DHT22;5978;51.020;6.764;2022-08-04T01:39:50;23.40;99.90
11838;DHT22;5978;51.020;6.764;2022-08-04T01:42:18;23.40;99.90
11838;DHT22;5978;51.020;6.764;2022-08-04T01:44:46;23.40;99.90
11838;DHT22;5978;51.020;6.764;2022-08-04T01:47:13;23.30;99.90
11838;DHT22;5978;51.020;6.764;2022-08-04T01:49:42;23.20;99.90
11838;DHT22;5978;51.020;6.764;2022-08-04T01:52:16;23.20;99.90
11838;DHT22;5978;51.020;6.764;2022-08-04T01:54:42;23.10;99.90
11838;DHT22;5978;51.020;6.764;2022-08-04T01:57:11;23.20;99.90
11838;DHT22;5978;51.020;6.764;2022-08-04T01:59:37;23.10;99.90
11838;DHT22;5978;51.020;6.764;2022-08-04T02:02:04;23.10;99.90
11838;DHT22;5978;51.020;6.764;2022-08-04T02:04:30;23.00;99.90
11838;DHT22;5978;51.020;6.764;2022-08-04T02:10:05;22.90;99.90
11838;DHT22;5978;51.020;6.764;2022-08-04T02:15:45;22.90;99.90
11838;DHT22;5978;51.020;6.764;2022-08-04T02:18:24;23.00;99.90
11838;DHT22;5978;51.020;6.764;2022-08-04T02:20:57;23.00;99.90
11838;DHT22;5978;51.020;6.764;2022-08-04T02:23:38;23.00;99.90
11838;DHT22;5978;51.020;6.764;2022-08-04T02:26:15;22.90;99.90
11838;DHT22;5978;51.020;6.764;2022-08-04T02:36:39;22.70;99.90
11838;DHT22;5978;51.020;6.764;2022-08-04T02:39:11;22.70;99.90
11838;DHT22;5978;51.020;6.764;2022-08-04T02:41:38;22.70;99.90
11838;DHT22;5978;51.020;6.764;2022-08-04T02:44:08;22.60;99.90
11838;DHT22;5978;51.020;6.764;2022-08-04T02:46:36;22.50;99.90
11838;DHT22;5978;51.020;6.764;2022-08-04T02:49:05;22.50;99.90
11838;DHT22;5978;51.020;6.764;2022-08-04T02:51:44;22.60;99.90
11838;DHT22;5978;51.020;6.764;2022-08-04T02:54:10;22.50;99.90
11838;DHT22;5978;51.020;6.764;2022-08-04T02:56:37;22.50;99.90
11838;DHT22;5978;51.020;6.764;2022-08-04T02:59:06;22.40;99.90
11838;DHT22;5978;51.020;6.764;2022-08-04T03:01:32;22.40;99.90
11838;DHT22;5978;51.020;6.764;2022-08-04T03:30:04;22.20;99.90
11838;DHT22;5978;51.020;6.764;2022-08-04T03:32:21;22.20;99.90
11838;DHT22;5978;51.020;6.764;2022-08-04T03:49:05;21.90;99.90
11838;DHT22;5978;51.020;6.764;2022-08-04T04:00:06;21.60;99.90
11838;DHT22;5978;51.020;6.764;2022-08-04T04:16:57;21.70;99.90
11838;DHT22;5978;51.020;6.764;2022-08-04T04:25:24;21.80;99.90
11838;DHT22;5978;51.020;6.764;2022-08-04T04:28:23;21.80;99.90
11838;DHT22;5978;51.020;6.764;2022-08-04T04:39:25;21.70;99.90
11838;DHT22;5978;51.020;6.764;2022-08-04T04:47:08;21.50;99.90
11838;DHT22;5978;51.020;6.764;2022-08-04T04:49:53;21.40;99.90
11838;DHT22;5978;51.020;6.764;2022-08-04T04:55:26;21.40;99.90
11838;DHT22;5978;51.020;6.764;2022-08-04T04:57:56;21.40;99.90
11838;DHT22;5978;51.020;6.764;2022-08-04T05:00:25;21.40;99.90
11838;DHT22;5978;51.020;6.764;2022-08-04T05:06:04;21.60;99.90
11838;DHT22;5978;51.020;6.764;2022-08-04T05:14:36;22.00;99.90
11838;DHT22;5978;51.020;6.764;2022-08-04T05:17:05;22.10;99.90
11838;DHT22;5978;51.020;6.764;2022-08-04T05:19:54;22.20;99.90
11838;DHT22;5978;51.020;6.764;2022-08-04T05:22:36;22.20;99.90
11838;DHT22;5978;51.020;6.764;2022-08-04T05:25:07;22.30;99.90
11838;DHT22;5978;51.020;6.764;2022-08-04T05:27:40;22.40;99.90
11838;DHT22;5978;51.020;6.764;2022-08-04T05:30:09;22.60;99.90
11838;DHT22;5978;51.020;6.764;2022-08-04T05:33:29;22.60;99.90
11838;DHT22;5978;51.020;6.764;2022-08-04T05:35:49;22.70;99.90
11838;DHT22;5978;51.020;6.764;2022-08-04T05:38:19;22.90;99.90
11838;DHT22;5978;51.020;6.764;2022-08-04T05:40:47;23.00;99.90
11838;DHT22;5978;51.020;6.764;2022-08-04T05:43:14;23.10;99.90
11838;DHT22;5978;51.020;6.764;2022-08-04T05:45:40;23.10;99.90
11838;DHT22;5978;51.020;6.764;2022-08-04T05:48:07;23.20;99.90
11838;DHT22;5978;51.020;6.764;2022-08-04T05:50:34;23.10;99.90
11838;DHT22;5978;51.020;6.764;2022-08-04T05:53:00;23.10;99.90
11838;DHT22;5978;51.020;6.764;2022-08-04T05:55:28;23.20;99.90
11838;DHT22;5978;51.020;6.764;2022-08-04T05:57:55;23.30;99.90
11838;DHT22;5978;51.020;6.764;2022-08-04T06:00:22;23.30;99.90
11838;DHT22;5978;51.020;6.764;2022-08-04T06:02:49;23.30;99.90
11838;DHT22;5978;51.020;6.764;2022-08-04T06:05:17;23.30;99.90
11838;DHT22;5978;51.020;6.764;2022-08-04T06:07:44;23.40;99.90
11838;DHT22;5978;51.020;6.764;2022-08-04T06:10:10;23.50;99.90
11838;DHT22;5978;51.020;6.764;2022-08-04T06:12:51;23.60;99.90
11838;DHT22;5978;51.020;6.764;2022-08-04T06:15:19;23.50;99.90
11838;DHT22;5978;51.020;6.764;2022-08-04T06:17:48;23.60;99.90
11838;DHT22;5978;51.020;6.764;2022-08-04T06:20:15;23.60;99.90
11838;DHT22;5978;51.020;6.764;2022-08-04T06:22:42;23.80;99.90
11838;DHT22;5978;51.020;6.764;2022-08-04T06:25:13;23.90;99.90
11838;DHT22;5978;51.020;6.764;2022-08-04T06:27:40;24.00;99.90
11838;DHT22;5978;51.020;6.764;2022-08-04T06:30:07;24.30;99.90
11838;DHT22;5978;51.020;6.764;2022-08-04T06:32:41;24.50;99.90
11838;DHT22;5978;51.020;6.764;2022-08-04T06:35:15;24.80;99.90
11838;DHT22;5978;51.020;6.764;2022-08-04T06:37:47;25.00;99.90
11838;DHT22;5978;51.020;6.764;2022-08-04T06:40:18;25.20;99.90
11838;DHT22;5978;51.020;6.764;2022-08-04T06:42:44;25.40;99.90
11838;DHT22;5978;51.020;6.764;2022-08-04T06:45:12;25.60;99.90
11838;DHT22;5978;51.020;6.764;2022-08-04T06:47:40;25.70;99.90
11838;DHT22;5978;51.020;6.764;2022-08-04T06:50:08;25.90;99.90
11838;DHT22;5978;51.020;6.764;2022-08-04T06:52:33;26.00;99.90
11838;DHT22;5978;51.020;6.764;2022-08-04T06:54:59;26.20;99.90
11838;DHT22;5978;51.020;6.764;2022-08-04T06:57:29;26.30;99.90
11838;DHT22;5978;51.020;6.764;2022-08-04T07:00:09;26.50;99.90
11838;DHT22;5978;51.020;6.764;2022-08-04T07:02:47;26.70;99.90
11838;DHT22;5978;51.020;6.764;2022-08-04T07:05:13;27.00;99.90
11838;DHT22;5978;51.020;6.764;2022-08-04T07:07:40;27.00;99.90
11838;DHT22;5978;51.020;6.764;2022-08-04T07:10:07;27.10;99.90
11838;DHT22;5978;51.020;6.764;2022-08-04T07:12:33;27.30;99.90
11838;DHT22;5978;51.020;6.764;2022-08-04T07:15:00;27.30;99.90
11838;DHT22;5978;51.020;6.764;2022-08-04T07:17:27;27.40;99.90
11838;DHT22;5978;51.020;6.764;2022-08-04T07:19:55;27.50;99.90
11838;DHT22;5978;51.020;6.764;2022-08-04T07:22:21;27.50;99.90
11838;DHT22;5978;51.020;6.764;2022-08-04T07:24:46;27.70;99.90
11838;DHT22;5978;51.020;6.764;2022-08-04T07:27:12;27.70;99.90
11838;DHT22;5978;51.020;6.764;2022-08-04T07:29:39;27.70;99.90
11838;DHT22;5978;51.020;6.764;2022-08-04T07:32:05;27.90;99.90
11838;DHT22;5978;51.020;6.764;2022-08-04T07:34:31;28.10;99.90
11838;DHT22;5978;51.020;6.764;2022-08-04T07:36:59;28.10;99.90
11838;DHT22;5978;51.020;6.764;2022-08-04T07:39:26;28.10;99.90
11838;DHT22;5978;51.020;6.764;2022-08-04T07:41:53;28.20;99.90
11838;DHT22;5978;51.020;6.764;2022-08-04T07:44:20;28.30;99.90
11838;DHT22;5978;51.020;6.764;2022-08-04T07:46:45;28.30;99.90
11838;DHT22;5978;51.020;6.764;2022-08-04T07:49:12;28.20;99.90
11838;DHT22;5978;51.020;6.764;2022-08-04T07:51:38;28.20;99.90
11838;DHT22;5978;51.020;6.764;2022-08-04T07:54:05;28.40;99.90
11838;DHT22;5978;51.020;6.764;2022-08-04T07:56:35;28.60;99.90
11838;DHT22;5978;51.020;6.764;2022-08-04T07:59:02;28.80;99.90
11838;DHT22;5978;51.020;6.764;2022-08-04T08:01:29;28.90;99.90
11838;DHT22;5978;51.020;6.764;2022-08-04T08:03:55;28.90;99.90
11838;DHT22;5978;51.020;6.764;2022-08-04T08:06:24;29.10;99.90
11838;DHT22;5978;51.020;6.764;2022-08-04T08:08:50;29.30;99.90
11838;DHT22;5978;51.020;6.764;2022-08-04T08:11:16;29.60;99.90
11838;DHT22;5978;51.020;6.764;2022-08-04T08:13:43;29.80;99.90
11838;DHT22;5978;51.020;6.764;2022-08-04T08:16:10;29.80;99.90
11838;DHT22;5978;51.020;6.764;2022-08-04T08:18:36;30.10;99.90
11838;DHT22;5978;51.020;6.764;2022-08-04T08:21:02;30.40;99.90
11838;DHT22;5978;51.020;6.764;2022-08-04T08:23:29;30.70;99.90
11838;DHT22;5978;51.020;6.764;2022-08-04T08:25:56;30.80;99.90
11838;DHT22;5978;51.020;6.764;2022-08-04T08:28:22;31.10;99.90
11838;DHT22;5978;51.020;6.764;2022-08-04T08:30:49;31.40;99.90
11838;DHT22;5978;51.020;6.764;2022-08-04T08:33:15;31.50;99.90
11838;DHT22;5978;51.020;6.764;2022-08-04T08:35:51;31.60;99.90
11838;DHT22;5978;51.020;6.764;2022-08-04T08:38:23;31.70;99.90
11838;DHT22;5978;51.020;6.764;2022-08-04T08:41:16;31.90;99.90
11838;DHT22;5978;51.020;6.764;2022-08-04T08:46:42;32.10;99.90
11838;DHT22;5978;51.020;6.764;2022-08-04T08:54:31;32.50;97.90
11838;DHT22;5978;51.020;6.764;2022-08-04T09:00:11;33.10;98.60
11838;DHT22;5978;51.020;6.764;2022-08-04T09:02:43;33.70;95.00
11838;DHT22;5978;51.020;6.764;2022-08-04T09:11:05;35.00;89.30
11838;DHT22;5978;51.020;6.764;2022-08-04T09:13:39;35.30;82.80
11838;DHT22;5978;51.020;6.764;2022-08-04T09:16:34;35.30;80.80
11838;DHT22;5978;51.020;6.764;2022-08-04T09:19:14;35.60;78.30
11838;DHT22;5978;51.020;6.764;2022-08-04T09:25:19;35.40;80.20
11838;DHT22;5978;51.020;6.764;2022-08-04T09:27:50;35.50;77.90
11838;DHT22;5978;51.020;6.764;2022-08-04T09:30:44;35.70;78.70
11838;DHT22;5978;51.020;6.764;2022-08-04T09:36:25;36.20;74.40
11838;DHT22;5978;51.020;6.764;2022-08-04T09:39:20;36.50;73.80
11838;DHT22;5978;51.020;6.764;2022-08-04T09:45:09;36.20;68.50
11838;DHT22;5978;51.020;6.764;2022-08-04T09:50:42;36.10;68.90
11838;DHT22;5978;51.020;6.764;2022-08-04T09:58:57;35.70;65.50
11838;DHT22;5978;51.020;6.764;2022-08-04T10:01:27;35.80;66.60
11838;DHT22;5978;51.020;6.764;2022-08-04T10:03:58;35.60;64.10
11838;DHT22;5978;51.020;6.764;2022-08-04T10:09:27;35.30;66.10
11838;DHT22;5978;51.020;6.764;2022-08-04T10:12:07;35.40;65.90
11838;DHT22;5978;51.020;6.764;2022-08-04T10:14:40;35.50;65.50
11838;DHT22;5978;51.020;6.764;2022-08-04T10:17:33;35.30;63.80
11838;DHT22;5978;51.020;6.764;2022-08-04T10:20:13;35.40;63.90
11838;DHT22;5978;51.020;6.764;2022-08-04T10:23:00;35.40;64.40
11838;DHT22;5978;51.020;6.764;2022-08-04T10:25:48;35.70;64.30
11838;DHT22;5978;51.020;6.764;2022-08-04T10:28:16;35.80;63.50
11838;DHT22;5978;51.020;6.764;2022-08-04T10:30:48;35.80;62.00
11838;DHT22;5978;51.020;6.764;2022-08-04T10:35:54;35.60;61.60
11838;DHT22;5978;51.020;6.764;2022-08-04T10:38:32;35.50;62.00
11838;DHT22;5978;51.020;6.764;2022-08-04T10:43:57;35.70;62.00
11838;DHT22;5978;51.020;6.764;2022-08-04T10:46:31;35.60;60.90
11838;DHT22;5978;51.020;6.764;2022-08-04T10:49:25;35.50;60.20
11838;DHT22;5978;51.020;6.764;2022-08-04T10:51:58;36.00;62.50
11838;DHT22;5978;51.020;6.764;2022-08-04T10:54:28;36.40;60.00
11838;DHT22;5978;51.020;6.764;2022-08-04T10:56:59;36.50;58.80
11838;DHT22;5978;51.020;6.764;2022-08-04T10:59:57;36.60;58.30
11838;DHT22;5978;51.020;6.764;2022-08-04T11:07:52;36.10;59.90
11838;DHT22;5978;51.020;6.764;2022-08-04T11:10:22;36.00;62.30
11838;DHT22;5978;51.020;6.764;2022-08-04T11:12:54;35.90;62.30
11838;DHT22;5978;51.020;6.764;2022-08-04T11:15:25;35.90;62.50
11838;DHT22;5978;51.020;6.764;2022-08-04T11:17:55;35.80;62.50
11838;DHT22;5978;51.020;6.764;2022-08-04T11:20:36;36.00;62.40
11838;DHT22;5978;51.020;6.764;2022-08-04T11:25:55;35.40;61.00
11838;DHT22;5978;51.020;6.764;2022-08-04T11:28:41;35.40;62.20
11838;DHT22;5978;51.020;6.764;2022-08-04T11:31:20;35.60;62.40
11838;DHT22;5978;51.020;6.764;2022-08-04T11:34:04;35.60;62.10
11838;DHT22;5978;51.020;6.764;2022-08-04T11:36:40;35.90;63.10
11838;DHT22;5978;51.020;6.764;2022-08-04T11:39:20;36.30;62.00
11838;DHT22;5978;51.020;6.764;2022-08-04T11:41:57;36.50;61.70
11838;DHT22;5978;51.020;6.764;2022-08-04T11:44:35;35.90;61.10
11838;DHT22;5978;51.020;6.764;2022-08-04T11:47:06;35.50;61.60
11838;DHT22;5978;51.020;6.764;2022-08-04T11:49:43;34.70;61.30
11838;DHT22;5978;51.020;6.764;2022-08-04T11:52:12;34.30;63.10
11838;DHT22;5978;51.020;6.764;2022-08-04T11:54:39;34.00;64.50
11838;DHT22;5978;51.020;6.764;2022-08-04T11:57:06;33.90;68.20
11838;DHT22;5978;51.020;6.764;2022-08-04T11:59:34;34.10;71.40
11838;DHT22;5978;51.020;6.764;2022-08-04T12:04:46;34.50;70.90
11838;DHT22;5978;51.020;6.764;2022-08-04T12:13:27;35.30;70.50
11838;DHT22;5978;51.020;6.764;2022-08-04T12:16:08;35.20;70.00
11838;DHT22;5978;51.020;6.764;2022-08-04T12:18:41;35.50;70.20
11838;DHT22;5978;51.020;6.764;2022-08-04T12:21:13;35.60;69.90
11838;DHT22;5978;51.020;6.764;2022-08-04T12:23:42;35.00;66.70
11838;DHT22;5978;51.020;6.764;2022-08-04T12:26:20;34.90;68.10
11838;DHT22;5978;51.020;6.764;2022-08-04T12:28:49;34.70;67.20
11838;DHT22;5978;51.020;6.764;2022-08-04T12:31:28;34.50;67.30
11838;DHT22;5978;51.020;6.764;2022-08-04T12:33:57;34.50;66.40
11838;DHT22;5978;51.020;6.764;2022-08-04T12:36:46;34.30;68.10
11838;DHT22;5978;51.020;6.764;2022-08-04T12:39:21;34.30;67.80
11838;DHT22;5978;51.020;6.764;2022-08-04T12:44:36;34.40;68.80
11838;DHT22;5978;51.020;6.764;2022-08-04T12:47:06;34.80;68.30
11838;DHT22;5978;51.020;6.764;2022-08-04T12:49:34;35.60;68.60
11838;DHT22;5978;51.020;6.764;2022-08-04T12:52:05;36.60;64.70
11838;DHT22;5978;51.020;6.764;2022-08-04T12:54:32;37.40;62.40
11838;DHT22;5978;51.020;6.764;2022-08-04T12:57:01;38.50;60.80
11838;DHT22;5978;51.020;6.764;2022-08-04T12:59:28;38.50;58.80
11838;DHT22;5978;51.020;6.764;2022-08-04T13:01:55;38.50;59.80
11838;DHT22;5978;51.020;6.764;2022-08-04T13:04:23;38.50;58.80
11838;DHT22;5978;51.020;6.764;2022-08-04T13:07:04;38.30;58.70
11838;DHT22;5978;51.020;6.764;2022-08-04T13:09:32;37.80;60.30
11838;DHT22;5978;51.020;6.764;2022-08-04T13:12:02;37.30;60.50
11838;DHT22;5978;51.020;6.764;2022-08-04T13:14:34;36.70;62.50
11838;DHT22;5978;51.020;6.764;2022-08-04T13:17:02;36.10;63.30
11838;DHT22;5978;51.020;6.764;2022-08-04T13:19:29;35.50;64.90
11838;DHT22;5978;51.020;6.764;2022-08-04T13:21:55;35.10;66.30
11838;DHT22;5978;51.020;6.764;2022-08-04T13:24:22;35.30;67.70
11838;DHT22;5978;51.020;6.764;2022-08-04T13:26:56;36.00;68.50
11838;DHT22;5978;51.020;6.764;2022-08-04T13:29:24;37.00;67.60
11838;DHT22;5978;51.020;6.764;2022-08-04T13:31:55;37.80;65.40
11838;DHT22;5978;51.020;6.764;2022-08-04T13:34:21;38.70;65.10
11838;DHT22;5978;51.020;6.764;2022-08-04T13:36:48;38.70;63.00
11838;DHT22;5978;51.020;6.764;2022-08-04T13:39:19;38.50;62.20
11838;DHT22;5978;51.020;6.764;2022-08-04T13:41:51;37.90;61.50
11838;DHT22;5978;51.020;6.764;2022-08-04T13:44:21;37.90;63.30
11838;DHT22;5978;51.020;6.764;2022-08-04T13:47:09;38.20;62.00
11838;DHT22;5978;51.020;6.764;2022-08-04T13:49:36;38.50;60.80
11838;DHT22;5978;51.020;6.764;2022-08-04T13:52:04;38.20;60.50
11838;DHT22;5978;51.020;6.764;2022-08-04T13:54:38;38.70;59.90
11838;DHT22;5978;51.020;6.764;2022-08-04T13:57:15;38.70;60.70
11838;DHT22;5978;51.020;6.764;2022-08-04T13:59:44;38.40;59.30
11838;DHT22;5978;51.020;6.764;2022-08-04T14:02:32;38.10;59.60
11838;DHT22;5978;51.020;6.764;2022-08-04T14:05:16;37.90;59.70
11838;DHT22;5978;51.020;6.764;2022-08-04T14:07:51;37.10;60.30
11838;DHT22;5978;51.020;6.764;2022-08-04T14:10:18;36.60;60.80
11838;DHT22;5978;51.020;6.764;2022-08-04T14:12:45;36.20;63.20
11838;DHT22;5978;51.020;6.764;2022-08-04T14:15:41;35.90;62.30
11838;DHT22;5978;51.020;6.764;2022-08-04T14:18:23;35.70;63.90
11838;DHT22;5978;51.020;6.764;2022-08-04T14:20:58;35.10;63.20
11838;DHT22;5978;51.020;6.764;2022-08-04T14:23:25;34.70;63.70
11838;DHT22;5978;51.020;6.764;2022-08-04T14:25:51;34.40;66.10
11838;DHT22;5978;51.020;6.764;2022-08-04T14:28:28;34.30;65.30
11838;DHT22;5978;51.020;6.764;2022-08-04T14:31:08;34.00;66.50
11838;DHT22;5978;51.020;6.764;2022-08-04T14:33:39;33.70;66.90
11838;DHT22;5978;51.020;6.764;2022-08-04T14:36:06;33.50;68.50
11838;DHT22;5978;51.020;6.764;2022-08-04T14:38:51;33.40;67.80
11838;DHT22;5978;51.020;6.764;2022-08-04T14:41:20;33.10;69.80
11838;DHT22;5978;51.020;6.764;2022-08-04T14:43:49;33.10;70.10
11838;DHT22;5978;51.020;6.764;2022-08-04T14:46:15;33.00;71.50
11838;DHT22;5978;51.020;6.764;2022-08-04T14:49:12;33.00;71.70
11838;DHT22;5978;51.020;6.764;2022-08-04T14:51:45;32.70;73.30
11838;DHT22;5978;51.020;6.764;2022-08-04T14:54:14;32.50;75.00
11838;DHT22;5978;51.020;6.764;2022-08-04T14:56:41;32.50;76.20
11838;DHT22;5978;51.020;6.764;2022-08-04T14:59:09;32.50;76.40
11838;DHT22;5978;51.020;6.764;2022-08-04T15:01:41;32.40;77.80
11838;DHT22;5978;51.020;6.764;2022-08-04T15:04:07;32.20;78.30
11838;DHT22;5978;51.020;6.764;2022-08-04T15:06:34;32.10;80.20
11838;DHT22;5978;51.020;6.764;2022-08-04T15:09:08;32.00;82.00
11838;DHT22;5978;51.020;6.764;2022-08-04T15:11:35;32.00;83.20
11838;DHT22;5978;51.020;6.764;2022-08-04T15:14:02;32.20;84.30
11838;DHT22;5978;51.020;6.764;2022-08-04T15:16:31;32.10;84.80
11838;DHT22;5978;51.020;6.764;2022-08-04T15:18:57;32.10;86.50
11838;DHT22;5978;51.020;6.764;2022-08-04T15:21:24;32.20;86.60
11838;DHT22;5978;51.020;6.764;2022-08-04T15:23:50;32.10;88.40
11838;DHT22;5978;51.020;6.764;2022-08-04T15:26:22;32.20;89.70
11838;DHT22;5978;51.020;6.764;2022-08-04T15:28:53;32.30;90.00
11838;DHT22;5978;51.020;6.764;2022-08-04T15:31:21;32.10;90.50
11838;DHT22;5978;51.020;6.764;2022-08-04T15:33:48;32.00;90.60
11838;DHT22;5978;51.020;6.764;2022-08-04T15:36:21;31.80;90.80
11838;DHT22;5978;51.020;6.764;2022-08-04T15:39:02;31.50;91.20
11838;DHT22;5978;51.020;6.764;2022-08-04T15:44:45;31.10;93.30
11838;DHT22;5978;51.020;6.764;2022-08-04T15:47:14;31.00;93.80
11838;DHT22;5978;51.020;6.764;2022-08-04T15:49:42;30.90;94.50
11838;DHT22;5978;51.020;6.764;2022-08-04T15:52:10;30.70;95.20
11838;DHT22;5978;51.020;6.764;2022-08-04T15:54:36;30.60;96.70
11838;DHT22;5978;51.020;6.764;2022-08-04T15:57:03;30.50;97.90
11838;DHT22;5978;51.020;6.764;2022-08-04T15:59:58;30.50;98.30
11838;DHT22;5978;51.020;6.764;2022-08-04T16:07:59;30.50;99.90
11838;DHT22;5978;51.020;6.764;2022-08-04T16:13:08;30.70;99.90
11838;DHT22;5978;51.020;6.764;2022-08-04T16:15:43;31.00;99.90
11838;DHT22;5978;51.020;6.764;2022-08-04T16:18:18;31.20;99.90
11838;DHT22;5978;51.020;6.764;2022-08-04T16:20:45;31.40;99.70
11838;DHT22;5978;51.020;6.764;2022-08-04T16:25:58;31.70;97.40
11838;DHT22;5978;51.020;6.764;2022-08-04T16:28:40;32.00;96.20
11838;DHT22;5978;51.020;6.764;2022-08-04T16:31:09;32.10;95.40
11838;DHT22;5978;51.020;6.764;2022-08-04T16:33:35;32.00;95.40
11838;DHT22;5978;51.020;6.764;2022-08-04T16:36:01;31.90;95.90
11838;DHT22;5978;51.020;6.764;2022-08-04T16:38:27;32.00;96.30
11838;DHT22;5978;51.020;6.764;2022-08-04T16:40:59;32.10;95.60
11838;DHT22;5978;51.020;6.764;2022-08-04T16:43:30;32.00;95.40
11838;DHT22;5978;51.020;6.764;2022-08-04T16:46:01;32.00;95.70
11838;DHT22;5978;51.020;6.764;2022-08-04T16:48:34;32.10;96.50
11838;DHT22;5978;51.020;6.764;2022-08-04T16:53:28;32.00;94.90
11838;DHT22;5978;51.020;6.764;2022-08-04T16:55:58;31.90;95.50
11838;DHT22;5978;51.020;6.764;2022-08-04T16:58:30;31.90;96.30
11838;DHT22;5978;51.020;6.764;2022-08-04T17:00:58;31.90;95.60
11838;DHT22;5978;51.020;6.764;2022-08-04T17:03:30;31.80;95.40
11838;DHT22;5978;51.020;6.764;2022-08-04T17:06:12;31.70;95.90
11838;DHT22;5978;51.020;6.764;2022-08-04T17:08:42;31.60;95.70
11838;DHT22;5978;51.020;6.764;2022-08-04T17:11:09;31.60;96.00
11838;DHT22;5978;51.020;6.764;2022-08-04T17:16:04;31.60;96.20
11838;DHT22;5978;51.020;6.764;2022-08-04T17:18:33;31.60;96.40
11838;DHT22;5978;51.020;6.764;2022-08-04T17:21:09;31.50;97.10
11838;DHT22;5978;51.020;6.764;2022-08-04T17:26:11;31.30;99.40
11838;DHT22;5978;51.020;6.764;2022-08-04T17:28:38;31.30;99.50
11838;DHT22;5978;51.020;6.764;2022-08-04T17:31:06;31.10;99.90
11838;DHT22;5978;51.020;6.764;2022-08-04T17:33:34;30.90;99.90
11838;DHT22;5978;51.020;6.764;2022-08-04T17:36:00;30.70;99.90
11838;DHT22;5978;51.020;6.764;2022-08-04T17:38:39;30.60;99.90
11838;DHT22;5978;51.020;6.764;2022-08-04T17:41:07;30.60;99.90
11838;DHT22;5978;51.020;6.764;2022-08-04T17:43:41;30.70;99.90
11838;DHT22;5978;51.020;6.764;2022-08-04T17:49:05;30.70;99.90
11838;DHT22;5978;51.020;6.764;2022-08-04T17:51:37;30.60;99.90
11838;DHT22;5978;51.020;6.764;2022-08-04T17:54:03;30.50;99.90
11838;DHT22;5978;51.020;6.764;2022-08-04T17:56:50;30.40;99.90
11838;DHT22;5978;51.020;6.764;2022-08-04T17:59:25;30.30;99.90
11838;DHT22;5978;51.020;6.764;2022-08-04T18:07:13;29.90;99.90
11838;DHT22;5978;51.020;6.764;2022-08-04T18:09:41;29.80;99.90
11838;DHT22;5978;51.020;6.764;2022-08-04T18:12:30;29.70;99.90
11838;DHT22;5978;51.020;6.764;2022-08-04T18:14:58;29.60;99.90
11838;DHT22;5978;51.020;6.764;2022-08-04T18:17:39;29.40;99.90
11838;DHT22;5978;51.020;6.764;2022-08-04T18:20:09;29.30;99.90
11838;DHT22;5978;51.020;6.764;2022-08-04T18:22:38;29.20;99.90
11838;DHT22;5978;51.020;6.764;2022-08-04T18:25:07;29.00;99.90
11838;DHT22;5978;51.020;6.764;2022-08-04T18:27:32;28.90;99.90
11838;DHT22;5978;51.020;6.764;2022-08-04T18:29:58;28.80;99.90
11838;DHT22;5978;51.020;6.764;2022-08-04T18:32:24;28.70;99.90
11838;DHT22;5978;51.020;6.764;2022-08-04T18:34:51;28.60;99.90
11838;DHT22;5978;51.020;6.764;2022-08-04T18:37:17;28.40;99.90
11838;DHT22;5978;51.020;6.764;2022-08-04T18:39:43;28.40;99.90
11838;DHT22;5978;51.020;6.764;2022-08-04T18:42:09;28.30;99.90
11838;DHT22;5978;51.020;6.764;2022-08-04T18:44:35;28.20;99.90
11838;DHT22;5978;51.020;6.764;2022-08-04T18:47:01;28.10;99.90
11838;DHT22;5978;51.020;6.764;2022-08-04T18:49:27;28.10;99.90
11838;DHT22;5978;51.020;6.764;2022-08-04T18:51:53;28.00;99.90
11838;DHT22;5978;51.020;6.764;2022-08-04T18:54:20;27.90;99.90
11838;DHT22;5978;51.020;6.764;2022-08-04T18:56:49;27.80;99.90
11838;DHT22;5978;51.020;6.764;2022-08-04T18:59:15;27.80;99.90
11838;DHT22;5978;51.020;6.764;2022-08-04T19:01:41;27.70;99.90
11838;DHT22;5978;51.020;6.764;2022-08-04T19:04:07;27.70;99.90
11838;DHT22;5978;51.020;6.764;2022-08-04T19:06:33;27.60;99.90
11838;DHT22;5978;51.020;6.764;2022-08-04T19:08:59;27.40;99.90
11838;DHT22;5978;51.020;6.764;2022-08-04T19:11:25;27.30;99.90
11838;DHT22;5978;51.020;6.764;2022-08-04T19:13:51;27.30;99.90
11838;DHT22;5978;51.020;6.764;2022-08-04T19:16:17;27.20;99.90
11838;DHT22;5978;51.020;6.764;2022-08-04T19:18:42;27.20;99.90
11838;DHT22;5978;51.020;6.764;2022-08-04T19:21:08;27.10;99.90
11838;DHT22;5978;51.020;6.764;2022-08-04T19:23:34;27.10;99.90
11838;DHT22;5978;51.020;6.764;2022-08-04T19:26:00;27.10;99.90
11838;DHT22;5978;51.020;6.764;2022-08-04T19:28:27;27.00;99.90
11838;DHT22;5978;51.020;6.764;2022-08-04T19:30:52;27.00;99.90
11838;DHT22;5978;51.020;6.764;2022-08-04T19:33:20;27.00;99.90
11838;DHT22;5978;51.020;6.764;2022-08-04T19:35:46;26.90;99.90
11838;DHT22;5978;51.020;6.764;2022-08-04T19:38:12;26.90;99.90
11838;DHT22;5978;51.020;6.764;2022-08-04T19:40:38;26.80;99.90
11838;DHT22;5978;51.020;6.764;2022-08-04T19:43:05;26.70;99.90
11838;DHT22;5978;51.020;6.764;2022-08-04T19:45:31;26.60;99.90
11838;DHT22;5978;51.020;6.764;2022-08-04T19:47:56;26.60;99.90
11838;DHT22;5978;51.020;6.764;2022-08-04T19:50:22;26.50;99.90
11838;DHT22;5978;51.020;6.764;2022-08-04T19:52:48;26.50;99.90
11838;DHT22;5978;51.020;6.764;2022-08-04T19:55:14;26.50;99.90
11838;DHT22;5978;51.020;6.764;2022-08-04T19:57:40;26.50;99.90
11838;DHT22;5978;51.020;6.764;2022-08-04T20:00:09;26.50;99.90
11838;DHT22;5978;51.020;6.764;2022-08-04T20:02:35;26.60;99.90
11838;DHT22;5978;51.020;6.764;2022-08-04T20:05:00;26.50;99.90
11838;DHT22;5978;51.020;6.764;2022-08-04T20:07:26;26.50;99.90